sensor_id;sensor_type;location;lat;lon;timestamp;P1;durP1;ratioP1;P2;durP2;ratioP2
29712;SDS011;16623;53.632;10.016;2023-08-24T00:00:15;10.40;;;5.88;;
29712;SDS011;16623;53.632;10.016;2023-08-24T00:02:41;11.82;;;5.90;;
29712;SDS011;16623;53.632;10.016;2023-08-24T00:05:07;13.95;;;6.53;;
29712;SDS011;16623;53.632;10.016;2023-08-24T00:07:33;14.68;;;7.10;;
29712;SDS011;16623;53.632;10.016;2023-08-24T00:09:59;12.07;;;6.05;;
29712;SDS011;16623;53.632;10.016;2023-08-24T00:12:24;11.80;;;5.80;;
29712;SDS011;16623;53.632;10.016;2023-08-24T00:14:50;12.77;;;6.28;;
29712;SDS011;16623;53.632;10.016;2023-08-24T00:17:16;8.05;;;5.90;;
29712;SDS011;16623;53.632;10.016;2023-08-24T00:19:42;19.20;;;7.30;;
29712;SDS011;16623;53.632;10.016;2023-08-24T00:22:07;10.73;;;5.45;;
29712;SDS011;16623;53.632;10.016;2023-08-24T00:24:33;10.82;;;6.28;;
29712;SDS011;16623;53.632;10.016;2023-08-24T00:26:58;15.75;;;5.63;;
29712;SDS011;16623;53.632;10.016;2023-08-24T00:29:26;8.52;;;5.15;;
29712;SDS011;16623;53.632;10.016;2023-08-24T00:31:51;6.60;;;4.90;;
29712;SDS011;16623;53.632;10.016;2023-08-24T00:34:17;9.30;;;5.32;;
29712;SDS011;16623;53.632;10.016;2023-08-24T00:36:43;9.55;;;4.97;;
29712;SDS011;16623;53.632;10.016;2023-08-24T00:39:08;10.82;;;5.38;;
29712;SDS011;16623;53.632;10.016;2023-08-24T00:41:34;12.82;;;5.50;;
29712;SDS011;16623;53.632;10.016;2023-08-24T00:43:59;9.38;;;4.78;;
29712;SDS011;16623;53.632;10.016;2023-08-24T00:46:25;7.63;;;5.10;;
29712;SDS011;16623;53.632;10.016;2023-08-24T00:48:52;8.38;;;4.68;;
29712;SDS011;16623;53.632;10.016;2023-08-24T00:51:22;12.80;;;5.55;;
29712;SDS011;16623;53.632;10.016;2023-08-24T00:53:48;10.70;;;5.05;;
29712;SDS011;16623;53.632;10.016;2023-08-24T00:56:14;10.50;;;5.68;;
29712;SDS011;16623;53.632;10.016;2023-08-24T00:58:40;6.70;;;5.35;;
29712;SDS011;16623;53.632;10.016;2023-08-24T01:01:05;11.90;;;5.13;;
29712;SDS011;16623;53.632;10.016;2023-08-24T01:03:31;10.82;;;6.10;;
29712;SDS011;16623;53.632;10.016;2023-08-24T01:05:57;9.85;;;5.03;;
29712;SDS011;16623;53.632;10.016;2023-08-24T01:08:22;11.82;;;5.25;;
29712;SDS011;16623;53.632;10.016;2023-08-24T01:10:55;10.38;;;5.18;;
29712;SDS011;16623;53.632;10.016;2023-08-24T01:13:30;8.07;;;5.05;;
29712;SDS011;16623;53.632;10.016;2023-08-24T01:16:12;9.75;;;5.10;;
29712;SDS011;16623;53.632;10.016;2023-08-24T01:18:41;9.05;;;5.25;;
29712;SDS011;16623;53.632;10.016;2023-08-24T01:21:08;12.88;;;5.05;;
29712;SDS011;16623;53.632;10.016;2023-08-24T01:23:36;11.85;;;4.47;;
29712;SDS011;16623;53.632;10.016;2023-08-24T01:26:16;8.77;;;5.07;;
29712;SDS011;16623;53.632;10.016;2023-08-24T01:31:09;12.80;;;4.45;;
29712;SDS011;16623;53.632;10.016;2023-08-24T01:33:35;9.40;;;5.10;;
29712;SDS011;16623;53.632;10.016;2023-08-24T01:36:01;10.38;;;4.15;;
29712;SDS011;16623;53.632;10.016;2023-08-24T01:38:27;7.43;;;4.43;;
29712;SDS011;16623;53.632;10.016;2023-08-24T01:43:38;7.85;;;4.15;;
29712;SDS011;16623;53.632;10.016;2023-08-24T01:46:05;8.88;;;4.03;;
29712;SDS011;16623;53.632;10.016;2023-08-24T01:48:32;9.57;;;4.88;;
29712;SDS011;16623;53.632;10.016;2023-08-24T01:50:58;8.85;;;3.72;;
29712;SDS011;16623;53.632;10.016;2023-08-24T01:53:26;7.93;;;3.55;;
29712;SDS011;16623;53.632;10.016;2023-08-24T01:55:53;10.80;;;4.68;;
29712;SDS011;16623;53.632;10.016;2023-08-24T01:58:19;8.95;;;3.83;;
29712;SDS011;16623;53.632;10.016;2023-08-24T02:00:45;9.52;;;4.10;;
29712;SDS011;16623;53.632;10.016;2023-08-24T02:03:10;9.40;;;4.25;;
29712;SDS011;16623;53.632;10.016;2023-08-24T02:05:37;8.98;;;4.30;;
29712;SDS011;16623;53.632;10.016;2023-08-24T02:08:02;11.32;;;4.63;;
29712;SDS011;16623;53.632;10.016;2023-08-24T02:10:28;10.13;;;4.53;;
29712;SDS011;16623;53.632;10.016;2023-08-24T02:12:53;9.07;;;5.13;;
29712;SDS011;16623;53.632;10.016;2023-08-24T02:15:19;10.75;;;5.13;;
29712;SDS011;16623;53.632;10.016;2023-08-24T02:17:45;8.50;;;5.30;;
29712;SDS011;16623;53.632;10.016;2023-08-24T02:20:10;11.25;;;5.65;;
29712;SDS011;16623;53.632;10.016;2023-08-24T02:22:38;14.10;;;5.60;;
29712;SDS011;16623;53.632;10.016;2023-08-24T02:25:08;11.32;;;5.80;;
29712;SDS011;16623;53.632;10.016;2023-08-24T02:27:34;13.48;;;6.53;;
29712;SDS011;16623;53.632;10.016;2023-08-24T02:30:00;14.10;;;7.25;;
29712;SDS011;16623;53.632;10.016;2023-08-24T02:32:25;14.00;;;7.85;;
29712;SDS011;16623;53.632;10.016;2023-08-24T02:34:51;16.77;;;7.43;;
29712;SDS011;16623;53.632;10.016;2023-08-24T02:37:16;13.02;;;7.35;;
29712;SDS011;16623;53.632;10.016;2023-08-24T02:39:42;17.50;;;8.45;;
29712;SDS011;16623;53.632;10.016;2023-08-24T02:42:07;17.77;;;8.48;;
29712;SDS011;16623;53.632;10.016;2023-08-24T02:44:33;20.00;;;9.25;;
29712;SDS011;16623;53.632;10.016;2023-08-24T02:46:58;17.95;;;8.70;;
29712;SDS011;16623;53.632;10.016;2023-08-24T02:49:24;13.48;;;8.35;;
29712;SDS011;16623;53.632;10.016;2023-08-24T02:51:52;20.52;;;8.52;;
29712;SDS011;16623;53.632;10.016;2023-08-24T02:54:18;15.20;;;9.38;;
29712;SDS011;16623;53.632;10.016;2023-08-24T02:56:44;15.32;;;8.73;;
29712;SDS011;16623;53.632;10.016;2023-08-24T02:59:09;17.55;;;8.90;;
29712;SDS011;16623;53.632;10.016;2023-08-24T03:01:35;13.23;;;8.50;;
29712;SDS011;16623;53.632;10.016;2023-08-24T03:04:03;14.10;;;7.85;;
29712;SDS011;16623;53.632;10.016;2023-08-24T03:06:30;17.45;;;9.23;;
29712;SDS011;16623;53.632;10.016;2023-08-24T03:08:55;15.30;;;8.50;;
29712;SDS011;16623;53.632;10.016;2023-08-24T03:11:21;14.63;;;8.45;;
29712;SDS011;16623;53.632;10.016;2023-08-24T03:13:47;16.35;;;8.02;;
29712;SDS011;16623;53.632;10.016;2023-08-24T03:16:12;15.23;;;6.95;;
29712;SDS011;16623;53.632;10.016;2023-08-24T03:18:38;11.32;;;7.35;;
29712;SDS011;16623;53.632;10.016;2023-08-24T03:21:03;12.77;;;7.60;;
29712;SDS011;16623;53.632;10.016;2023-08-24T03:23:28;12.82;;;6.90;;
29712;SDS011;16623;53.632;10.016;2023-08-24T03:25:55;10.82;;;6.80;;
29712;SDS011;16623;53.632;10.016;2023-08-24T03:28:20;12.80;;;7.40;;
29712;SDS011;16623;53.632;10.016;2023-08-24T03:30:47;12.88;;;6.93;;
29712;SDS011;16623;53.632;10.016;2023-08-24T03:33:15;12.77;;;7.15;;
29712;SDS011;16623;53.632;10.016;2023-08-24T03:35:41;13.30;;;6.78;;
29712;SDS011;16623;53.632;10.016;2023-08-24T03:38:06;10.75;;;6.65;;
29712;SDS011;16623;53.632;10.016;2023-08-24T03:40:32;16.50;;;6.00;;
29712;SDS011;16623;53.632;10.016;2023-08-24T03:42:57;12.00;;;6.43;;
29712;SDS011;16623;53.632;10.016;2023-08-24T03:45:23;8.45;;;5.50;;
29712;SDS011;16623;53.632;10.016;2023-08-24T03:47:48;9.55;;;6.45;;
29712;SDS011;16623;53.632;10.016;2023-08-24T03:50:15;15.52;;;6.10;;
29712;SDS011;16623;53.632;10.016;2023-08-24T03:52:40;13.63;;;6.00;;
29712;SDS011;16623;53.632;10.016;2023-08-24T03:55:07;9.05;;;6.05;;
29712;SDS011;16623;53.632;10.016;2023-08-24T03:57:33;10.43;;;5.55;;
29712;SDS011;16623;53.632;10.016;2023-08-24T03:59:58;9.07;;;5.72;;
29712;SDS011;16623;53.632;10.016;2023-08-24T04:02:23;14.43;;;6.65;;
29712;SDS011;16623;53.632;10.016;2023-08-24T04:04:52;14.85;;;5.75;;
29712;SDS011;16623;53.632;10.016;2023-08-24T04:07:18;9.60;;;5.45;;
29712;SDS011;16623;53.632;10.016;2023-08-24T04:09:44;11.70;;;5.40;;
29712;SDS011;16623;53.632;10.016;2023-08-24T04:12:10;9.82;;;5.97;;
29712;SDS011;16623;53.632;10.016;2023-08-24T04:14:36;10.10;;;5.25;;
29712;SDS011;16623;53.632;10.016;2023-08-24T04:17:01;11.57;;;6.90;;
29712;SDS011;16623;53.632;10.016;2023-08-24T04:19:27;8.80;;;5.53;;
29712;SDS011;16623;53.632;10.016;2023-08-24T04:21:52;8.18;;;5.43;;
29712;SDS011;16623;53.632;10.016;2023-08-24T04:24:18;8.70;;;5.28;;
29712;SDS011;16623;53.632;10.016;2023-08-24T04:26:43;9.70;;;5.93;;
29712;SDS011;16623;53.632;10.016;2023-08-24T04:29:09;9.38;;;5.43;;
29712;SDS011;16623;53.632;10.016;2023-08-24T04:31:35;10.07;;;5.70;;
29712;SDS011;16623;53.632;10.016;2023-08-24T04:34:02;9.73;;;5.28;;
29712;SDS011;16623;53.632;10.016;2023-08-24T04:36:28;12.50;;;5.57;;
29712;SDS011;16623;53.632;10.016;2023-08-24T04:38:54;10.18;;;6.07;;
29712;SDS011;16623;53.632;10.016;2023-08-24T04:41:19;9.57;;;5.00;;
29712;SDS011;16623;53.632;10.016;2023-08-24T04:43:45;7.88;;;5.20;;
29712;SDS011;16623;53.632;10.016;2023-08-24T04:46:11;16.38;;;6.55;;
29712;SDS011;16623;53.632;10.016;2023-08-24T04:48:36;8.88;;;5.78;;
29712;SDS011;16623;53.632;10.016;2023-08-24T04:51:02;9.93;;;5.05;;
29712;SDS011;16623;53.632;10.016;2023-08-24T04:53:27;7.50;;;4.38;;
29712;SDS011;16623;53.632;10.016;2023-08-24T04:55:53;11.65;;;5.30;;
29712;SDS011;16623;53.632;10.016;2023-08-24T04:58:19;10.15;;;4.35;;
29712;SDS011;16623;53.632;10.016;2023-08-24T05:00:44;9.00;;;4.50;;
29712;SDS011;16623;53.632;10.016;2023-08-24T05:03:10;11.20;;;5.18;;
29712;SDS011;16623;53.632;10.016;2023-08-24T05:05:36;7.70;;;4.68;;
29712;SDS011;16623;53.632;10.016;2023-08-24T05:08:03;8.38;;;4.50;;
29712;SDS011;16623;53.632;10.016;2023-08-24T05:10:36;11.80;;;4.80;;
29712;SDS011;16623;53.632;10.016;2023-08-24T05:13:02;5.75;;;3.70;;
29712;SDS011;16623;53.632;10.016;2023-08-24T05:15:28;5.60;;;3.80;;
29712;SDS011;16623;53.632;10.016;2023-08-24T05:17:54;9.48;;;4.22;;
29712;SDS011;16623;53.632;10.016;2023-08-24T05:20:23;8.52;;;3.58;;
29712;SDS011;16623;53.632;10.016;2023-08-24T05:22:50;12.00;;;3.55;;
29712;SDS011;16623;53.632;10.016;2023-08-24T05:25:15;13.45;;;4.80;;
29712;SDS011;16623;53.632;10.016;2023-08-24T05:27:43;13.35;;;4.45;;
29712;SDS011;16623;53.632;10.016;2023-08-24T05:30:09;7.57;;;4.25;;
29712;SDS011;16623;53.632;10.016;2023-08-24T05:32:35;8.90;;;4.30;;
29712;SDS011;16623;53.632;10.016;2023-08-24T05:35:04;14.32;;;4.97;;
29712;SDS011;16623;53.632;10.016;2023-08-24T05:37:31;6.00;;;4.43;;
29712;SDS011;16623;53.632;10.016;2023-08-24T05:39:58;6.22;;;3.92;;
29712;SDS011;16623;53.632;10.016;2023-08-24T05:42:24;13.68;;;4.70;;
29712;SDS011;16623;53.632;10.016;2023-08-24T05:44:49;7.82;;;4.82;;
29712;SDS011;16623;53.632;10.016;2023-08-24T05:47:15;11.57;;;4.47;;
29712;SDS011;16623;53.632;10.016;2023-08-24T05:49:40;5.50;;;3.22;;
29712;SDS011;16623;53.632;10.016;2023-08-24T05:52:06;10.18;;;3.70;;
29712;SDS011;16623;53.632;10.016;2023-08-24T05:54:31;7.88;;;3.25;;
29712;SDS011;16623;53.632;10.016;2023-08-24T05:56:57;6.25;;;3.42;;
29712;SDS011;16623;53.632;10.016;2023-08-24T05:59:25;8.77;;;3.88;;
29712;SDS011;16623;53.632;10.016;2023-08-24T06:01:51;7.28;;;3.58;;
29712;SDS011;16623;53.632;10.016;2023-08-24T06:04:17;8.18;;;3.53;;
29712;SDS011;16623;53.632;10.016;2023-08-24T06:06:42;5.45;;;3.60;;
29712;SDS011;16623;53.632;10.016;2023-08-24T06:09:08;5.60;;;3.17;;
29712;SDS011;16623;53.632;10.016;2023-08-24T06:11:34;5.97;;;3.00;;
29712;SDS011;16623;53.632;10.016;2023-08-24T06:14:03;4.47;;;2.58;;
29712;SDS011;16623;53.632;10.016;2023-08-24T06:16:29;6.45;;;2.83;;
29712;SDS011;16623;53.632;10.016;2023-08-24T06:18:54;4.97;;;2.55;;
29712;SDS011;16623;53.632;10.016;2023-08-24T06:21:20;7.20;;;2.50;;
29712;SDS011;16623;53.632;10.016;2023-08-24T06:23:46;6.55;;;2.33;;
29712;SDS011;16623;53.632;10.016;2023-08-24T06:26:13;4.53;;;2.08;;
29712;SDS011;16623;53.632;10.016;2023-08-24T06:28:38;5.22;;;2.05;;
29712;SDS011;16623;53.632;10.016;2023-08-24T06:31:04;7.07;;;2.30;;
29712;SDS011;16623;53.632;10.016;2023-08-24T06:33:35;5.70;;;2.08;;
29712;SDS011;16623;53.632;10.016;2023-08-24T06:36:02;6.60;;;2.40;;
29712;SDS011;16623;53.632;10.016;2023-08-24T06:38:30;2.80;;;2.08;;
29712;SDS011;16623;53.632;10.016;2023-08-24T06:40:57;5.72;;;2.03;;
29712;SDS011;16623;53.632;10.016;2023-08-24T06:43:23;4.75;;;1.88;;
29712;SDS011;16623;53.632;10.016;2023-08-24T06:45:50;4.80;;;1.67;;
29712;SDS011;16623;53.632;10.016;2023-08-24T06:48:15;8.45;;;1.67;;
29712;SDS011;16623;53.632;10.016;2023-08-24T06:50:41;7.55;;;1.98;;
29712;SDS011;16623;53.632;10.016;2023-08-24T06:53:06;5.80;;;1.95;;
29712;SDS011;16623;53.632;10.016;2023-08-24T06:55:32;6.43;;;1.45;;
29712;SDS011;16623;53.632;10.016;2023-08-24T06:57:57;6.35;;;1.25;;
29712;SDS011;16623;53.632;10.016;2023-08-24T07:00:23;2.78;;;1.40;;
29712;SDS011;16623;53.632;10.016;2023-08-24T07:02:50;5.85;;;1.52;;
29712;SDS011;16623;53.632;10.016;2023-08-24T07:05:16;1.73;;;1.13;;
29712;SDS011;16623;53.632;10.016;2023-08-24T07:07:45;2.40;;;1.13;;
29712;SDS011;16623;53.632;10.016;2023-08-24T07:10:12;4.25;;;1.20;;
29712;SDS011;16623;53.632;10.016;2023-08-24T07:12:38;6.93;;;1.90;;
29712;SDS011;16623;53.632;10.016;2023-08-24T07:15:09;4.78;;;1.85;;
29712;SDS011;16623;53.632;10.016;2023-08-24T07:17:35;2.53;;;1.20;;
29712;SDS011;16623;53.632;10.016;2023-08-24T07:20:02;2.65;;;1.20;;
29712;SDS011;16623;53.632;10.016;2023-08-24T07:22:30;4.63;;;1.30;;
29712;SDS011;16623;53.632;10.016;2023-08-24T07:24:55;5.35;;;1.23;;
29712;SDS011;16623;53.632;10.016;2023-08-24T07:27:21;2.78;;;1.15;;
29712;SDS011;16623;53.632;10.016;2023-08-24T07:29:47;1.80;;;1.23;;
29712;SDS011;16623;53.632;10.016;2023-08-24T07:32:13;4.97;;;1.13;;
29712;SDS011;16623;53.632;10.016;2023-08-24T07:34:38;3.58;;;1.02;;
29712;SDS011;16623;53.632;10.016;2023-08-24T07:37:04;1.52;;;0.90;;
29712;SDS011;16623;53.632;10.016;2023-08-24T07:39:30;2.85;;;1.00;;
29712;SDS011;16623;53.632;10.016;2023-08-24T07:41:55;5.50;;;1.50;;
29712;SDS011;16623;53.632;10.016;2023-08-24T07:44:21;2.45;;;1.30;;
29712;SDS011;16623;53.632;10.016;2023-08-24T07:46:49;4.88;;;1.20;;
29712;SDS011;16623;53.632;10.016;2023-08-24T07:49:15;5.40;;;1.05;;
29712;SDS011;16623;53.632;10.016;2023-08-24T07:51:40;3.40;;;1.17;;
29712;SDS011;16623;53.632;10.016;2023-08-24T07:54:07;2.97;;;1.05;;
29712;SDS011;16623;53.632;10.016;2023-08-24T07:56:33;3.35;;;1.10;;
29712;SDS011;16623;53.632;10.016;2023-08-24T07:58:59;3.45;;;0.90;;
29712;SDS011;16623;53.632;10.016;2023-08-24T08:01:24;3.58;;;1.13;;
29712;SDS011;16623;53.632;10.016;2023-08-24T08:03:50;4.63;;;0.90;;
29712;SDS011;16623;53.632;10.016;2023-08-24T08:06:15;6.50;;;1.30;;
29712;SDS011;16623;53.632;10.016;2023-08-24T08:08:41;2.45;;;0.98;;
29712;SDS011;16623;53.632;10.016;2023-08-24T08:11:07;1.88;;;0.88;;
29712;SDS011;16623;53.632;10.016;2023-08-24T08:13:34;8.07;;;1.35;;
29712;SDS011;16623;53.632;10.016;2023-08-24T08:16:03;3.65;;;0.93;;
29712;SDS011;16623;53.632;10.016;2023-08-24T08:18:30;4.60;;;1.20;;
29712;SDS011;16623;53.632;10.016;2023-08-24T08:20:56;6.28;;;1.58;;
29712;SDS011;16623;53.632;10.016;2023-08-24T08:23:22;3.00;;;0.88;;
29712;SDS011;16623;53.632;10.016;2023-08-24T08:25:47;3.75;;;1.30;;
29712;SDS011;16623;53.632;10.016;2023-08-24T08:28:13;5.13;;;1.10;;
29712;SDS011;16623;53.632;10.016;2023-08-24T08:30:38;3.13;;;1.05;;
29712;SDS011;16623;53.632;10.016;2023-08-24T08:33:04;5.30;;;1.83;;
29712;SDS011;16623;53.632;10.016;2023-08-24T08:35:29;4.30;;;1.35;;
29712;SDS011;16623;53.632;10.016;2023-08-24T08:37:56;7.45;;;1.48;;
29712;SDS011;16623;53.632;10.016;2023-08-24T08:40:22;5.47;;;1.20;;
29712;SDS011;16623;53.632;10.016;2023-08-24T08:42:55;5.93;;;1.20;;
29712;SDS011;16623;53.632;10.016;2023-08-24T08:45:24;6.40;;;1.40;;
29712;SDS011;16623;53.632;10.016;2023-08-24T08:47:55;2.78;;;1.20;;
29712;SDS011;16623;53.632;10.016;2023-08-24T08:50:25;3.42;;;1.45;;
29712;SDS011;16623;53.632;10.016;2023-08-24T08:52:50;2.35;;;1.15;;
29712;SDS011;16623;53.632;10.016;2023-08-24T08:55:16;5.03;;;1.10;;
29712;SDS011;16623;53.632;10.016;2023-08-24T08:57:43;2.72;;;1.50;;
29712;SDS011;16623;53.632;10.016;2023-08-24T09:00:10;3.08;;;1.40;;
29712;SDS011;16623;53.632;10.016;2023-08-24T09:02:38;7.40;;;1.30;;
29712;SDS011;16623;53.632;10.016;2023-08-24T09:05:07;5.45;;;1.77;;
29712;SDS011;16623;53.632;10.016;2023-08-24T09:07:34;3.30;;;1.85;;
29712;SDS011;16623;53.632;10.016;2023-08-24T09:10:06;8.88;;;1.90;;
29712;SDS011;16623;53.632;10.016;2023-08-24T09:12:32;5.10;;;1.63;;
29712;SDS011;16623;53.632;10.016;2023-08-24T09:14:58;4.85;;;1.88;;
29712;SDS011;16623;53.632;10.016;2023-08-24T09:17:24;7.60;;;1.60;;
29712;SDS011;16623;53.632;10.016;2023-08-24T09:19:55;4.00;;;1.65;;
29712;SDS011;16623;53.632;10.016;2023-08-24T09:22:23;6.63;;;1.70;;
29712;SDS011;16623;53.632;10.016;2023-08-24T09:24:48;5.40;;;1.38;;
29712;SDS011;16623;53.632;10.016;2023-08-24T09:27:20;6.63;;;1.85;;
29712;SDS011;16623;53.632;10.016;2023-08-24T09:29:52;6.07;;;1.70;;
29712;SDS011;16623;53.632;10.016;2023-08-24T09:32:24;5.72;;;2.22;;
29712;SDS011;16623;53.632;10.016;2023-08-24T09:34:53;9.63;;;2.83;;
29712;SDS011;16623;53.632;10.016;2023-08-24T09:37:19;4.18;;;1.60;;
29712;SDS011;16623;53.632;10.016;2023-08-24T09:39:45;8.07;;;1.63;;
29712;SDS011;16623;53.632;10.016;2023-08-24T09:42:10;6.38;;;1.85;;
29712;SDS011;16623;53.632;10.016;2023-08-24T09:44:37;6.63;;;2.97;;
29712;SDS011;16623;53.632;10.016;2023-08-24T09:47:08;3.42;;;1.77;;
29712;SDS011;16623;53.632;10.016;2023-08-24T09:49:38;7.30;;;1.88;;
29712;SDS011;16623;53.632;10.016;2023-08-24T09:52:07;3.90;;;2.00;;
29712;SDS011;16623;53.632;10.016;2023-08-24T09:54:36;7.97;;;2.30;;
29712;SDS011;16623;53.632;10.016;2023-08-24T09:57:02;12.52;;;2.75;;
29712;SDS011;16623;53.632;10.016;2023-08-24T09:59:29;7.43;;;2.30;;
29712;SDS011;16623;53.632;10.016;2023-08-24T10:01:57;7.20;;;2.13;;
29712;SDS011;16623;53.632;10.016;2023-08-24T10:04:28;5.15;;;2.33;;
29712;SDS011;16623;53.632;10.016;2023-08-24T10:07:08;5.75;;;2.70;;
29712;SDS011;16623;53.632;10.016;2023-08-24T10:10:00;6.53;;;2.50;;
29712;SDS011;16623;53.632;10.016;2023-08-24T10:12:32;6.30;;;2.45;;
29712;SDS011;16623;53.632;10.016;2023-08-24T10:15:06;12.68;;;2.20;;
29712;SDS011;16623;53.632;10.016;2023-08-24T10:17:34;11.15;;;2.95;;
29712;SDS011;16623;53.632;10.016;2023-08-24T10:20:02;4.00;;;1.92;;
29712;SDS011;16623;53.632;10.016;2023-08-24T10:22:31;8.10;;;3.42;;
29712;SDS011;16623;53.632;10.016;2023-08-24T10:25:00;11.43;;;1.90;;
29712;SDS011;16623;53.632;10.016;2023-08-24T10:27:26;5.55;;;2.20;;
29712;SDS011;16623;53.632;10.016;2023-08-24T10:29:52;6.95;;;2.00;;
29712;SDS011;16623;53.632;10.016;2023-08-24T10:32:21;7.88;;;2.60;;
29712;SDS011;16623;53.632;10.016;2023-08-24T10:34:49;7.13;;;2.22;;
29712;SDS011;16623;53.632;10.016;2023-08-24T10:37:15;4.32;;;1.85;;
29712;SDS011;16623;53.632;10.016;2023-08-24T10:39:44;6.10;;;2.58;;
29712;SDS011;16623;53.632;10.016;2023-08-24T10:42:11;7.50;;;2.30;;
29712;SDS011;16623;53.632;10.016;2023-08-24T10:44:38;8.85;;;1.92;;
29712;SDS011;16623;53.632;10.016;2023-08-24T10:47:11;8.45;;;2.40;;
29712;SDS011;16623;53.632;10.016;2023-08-24T10:49:41;4.30;;;1.92;;
29712;SDS011;16623;53.632;10.016;2023-08-24T10:52:19;4.47;;;1.90;;
29712;SDS011;16623;53.632;10.016;2023-08-24T10:54:55;3.45;;;2.00;;
29712;SDS011;16623;53.632;10.016;2023-08-24T10:57:22;5.93;;;1.83;;
29712;SDS011;16623;53.632;10.016;2023-08-24T11:00:03;3.95;;;1.60;;
29712;SDS011;16623;53.632;10.016;2023-08-24T11:03:07;4.88;;;1.80;;
29712;SDS011;16623;53.632;10.016;2023-08-24T11:05:27;3.90;;;2.10;;
29712;SDS011;16623;53.632;10.016;2023-08-24T11:07:59;12.55;;;3.08;;
29712;SDS011;16623;53.632;10.016;2023-08-24T11:10:30;3.00;;;2.20;;
29712;SDS011;16623;53.632;10.016;2023-08-24T11:18:21;7.18;;;2.03;;
29712;SDS011;16623;53.632;10.016;2023-08-24T11:21:01;7.55;;;2.45;;
29712;SDS011;16623;53.632;10.016;2023-08-24T11:23:30;5.75;;;2.13;;
29712;SDS011;16623;53.632;10.016;2023-08-24T11:25:57;4.47;;;1.92;;
29712;SDS011;16623;53.632;10.016;2023-08-24T11:28:27;5.07;;;2.20;;
29712;SDS011;16623;53.632;10.016;2023-08-24T11:30:55;5.53;;;1.95;;
29712;SDS011;16623;53.632;10.016;2023-08-24T11:33:28;4.78;;;2.20;;
29712;SDS011;16623;53.632;10.016;2023-08-24T11:35:54;7.80;;;1.90;;
29712;SDS011;16623;53.632;10.016;2023-08-24T11:38:20;7.43;;;2.10;;
29712;SDS011;16623;53.632;10.016;2023-08-24T11:40:45;4.30;;;2.00;;
29712;SDS011;16623;53.632;10.016;2023-08-24T11:43:11;3.72;;;1.85;;
29712;SDS011;16623;53.632;10.016;2023-08-24T11:45:37;3.35;;;1.98;;
29712;SDS011;16623;53.632;10.016;2023-08-24T11:48:03;4.60;;;1.65;;
29712;SDS011;16623;53.632;10.016;2023-08-24T11:50:30;4.93;;;2.20;;
29712;SDS011;16623;53.632;10.016;2023-08-24T11:52:56;7.70;;;3.00;;
29712;SDS011;16623;53.632;10.016;2023-08-24T11:55:22;7.55;;;1.95;;
29712;SDS011;16623;53.632;10.016;2023-08-24T11:57:48;4.43;;;1.80;;
29712;SDS011;16623;53.632;10.016;2023-08-24T12:00:14;8.95;;;2.20;;
29712;SDS011;16623;53.632;10.016;2023-08-24T12:02:41;4.95;;;2.40;;
29712;SDS011;16623;53.632;10.016;2023-08-24T12:05:07;7.40;;;2.05;;
29712;SDS011;16623;53.632;10.016;2023-08-24T12:07:46;8.70;;;2.55;;
29712;SDS011;16623;53.632;10.016;2023-08-24T12:10:12;3.22;;;2.30;;
29712;SDS011;16623;53.632;10.016;2023-08-24T12:12:37;8.10;;;2.25;;
29712;SDS011;16623;53.632;10.016;2023-08-24T12:15:03;9.98;;;1.95;;
29712;SDS011;16623;53.632;10.016;2023-08-24T12:17:30;4.75;;;2.40;;
29712;SDS011;16623;53.632;10.016;2023-08-24T12:20:06;3.22;;;1.65;;
29712;SDS011;16623;53.632;10.016;2023-08-24T12:22:35;8.10;;;2.00;;
29712;SDS011;16623;53.632;10.016;2023-08-24T12:25:02;4.00;;;1.90;;
29712;SDS011;16623;53.632;10.016;2023-08-24T12:27:27;11.43;;;2.38;;
29712;SDS011;16623;53.632;10.016;2023-08-24T12:29:53;7.65;;;2.17;;
29712;SDS011;16623;53.632;10.016;2023-08-24T12:32:19;7.18;;;1.95;;
29712;SDS011;16623;53.632;10.016;2023-08-24T12:34:47;4.78;;;2.42;;
29712;SDS011;16623;53.632;10.016;2023-08-24T12:37:13;5.22;;;1.92;;
29712;SDS011;16623;53.632;10.016;2023-08-24T12:39:39;7.90;;;2.40;;
29712;SDS011;16623;53.632;10.016;2023-08-24T12:42:05;3.95;;;2.10;;
29712;SDS011;16623;53.632;10.016;2023-08-24T12:44:31;2.92;;;1.92;;
29712;SDS011;16623;53.632;10.016;2023-08-24T12:46:56;3.85;;;2.17;;
29712;SDS011;16623;53.632;10.016;2023-08-24T12:49:24;5.47;;;3.10;;
29712;SDS011;16623;53.632;10.016;2023-08-24T12:51:50;4.95;;;2.65;;
29712;SDS011;16623;53.632;10.016;2023-08-24T12:54:16;7.15;;;2.35;;
29712;SDS011;16623;53.632;10.016;2023-08-24T12:56:41;5.07;;;2.03;;
29712;SDS011;16623;53.632;10.016;2023-08-24T12:59:07;6.10;;;2.58;;
29712;SDS011;16623;53.632;10.016;2023-08-24T13:01:33;8.73;;;2.25;;
29712;SDS011;16623;53.632;10.016;2023-08-24T13:03:58;6.28;;;2.25;;
29712;SDS011;16623;53.632;10.016;2023-08-24T13:06:26;4.05;;;2.15;;
29712;SDS011;16623;53.632;10.016;2023-08-24T13:08:55;4.03;;;2.55;;
29712;SDS011;16623;53.632;10.016;2023-08-24T13:11:21;6.75;;;2.35;;
29712;SDS011;16623;53.632;10.016;2023-08-24T13:13:56;4.65;;;2.55;;
29712;SDS011;16623;53.632;10.016;2023-08-24T13:16:21;5.40;;;1.90;;
29712;SDS011;16623;53.632;10.016;2023-08-24T13:18:47;5.10;;;2.28;;
29712;SDS011;16623;53.632;10.016;2023-08-24T13:21:12;6.45;;;2.50;;
29712;SDS011;16623;53.632;10.016;2023-08-24T13:23:38;4.03;;;2.10;;
29712;SDS011;16623;53.632;10.016;2023-08-24T13:26:03;4.05;;;2.22;;
29712;SDS011;16623;53.632;10.016;2023-08-24T13:28:29;4.28;;;2.25;;
29712;SDS011;16623;53.632;10.016;2023-08-24T13:30:54;4.40;;;2.17;;
29712;SDS011;16623;53.632;10.016;2023-08-24T13:33:20;7.47;;;3.35;;
29712;SDS011;16623;53.632;10.016;2023-08-24T13:35:45;8.18;;;2.20;;
29712;SDS011;16623;53.632;10.016;2023-08-24T13:38:11;7.22;;;2.30;;
29712;SDS011;16623;53.632;10.016;2023-08-24T13:40:36;5.68;;;2.05;;
29712;SDS011;16623;53.632;10.016;2023-08-24T13:43:02;8.52;;;2.10;;
29712;SDS011;16623;53.632;10.016;2023-08-24T13:45:30;4.28;;;2.00;;
29712;SDS011;16623;53.632;10.016;2023-08-24T13:47:56;5.40;;;2.20;;
29712;SDS011;16623;53.632;10.016;2023-08-24T13:50:21;5.93;;;2.10;;
29712;SDS011;16623;53.632;10.016;2023-08-24T13:52:47;5.40;;;1.90;;
29712;SDS011;16623;53.632;10.016;2023-08-24T13:55:12;7.93;;;1.98;;
29712;SDS011;16623;53.632;10.016;2023-08-24T13:57:38;4.35;;;2.40;;
29712;SDS011;16623;53.632;10.016;2023-08-24T14:00:03;5.53;;;2.10;;
29712;SDS011;16623;53.632;10.016;2023-08-24T14:02:33;2.53;;;1.75;;
29712;SDS011;16623;53.632;10.016;2023-08-24T14:04:58;10.95;;;1.83;;
29712;SDS011;16623;53.632;10.016;2023-08-24T14:07:24;2.90;;;1.83;;
29712;SDS011;16623;53.632;10.016;2023-08-24T14:09:49;5.75;;;1.80;;
29712;SDS011;16623;53.632;10.016;2023-08-24T14:12:17;7.82;;;2.38;;
29712;SDS011;16623;53.632;10.016;2023-08-24T14:14:42;6.00;;;2.00;;
29712;SDS011;16623;53.632;10.016;2023-08-24T14:17:08;6.35;;;1.70;;
29712;SDS011;16623;53.632;10.016;2023-08-24T14:19:33;3.83;;;1.40;;
29712;SDS011;16623;53.632;10.016;2023-08-24T14:21:59;5.22;;;2.00;;
29712;SDS011;16623;53.632;10.016;2023-08-24T14:24:24;5.28;;;1.90;;
29712;SDS011;16623;53.632;10.016;2023-08-24T14:26:50;4.32;;;1.70;;
29712;SDS011;16623;53.632;10.016;2023-08-24T14:29:15;5.13;;;1.80;;
29712;SDS011;16623;53.632;10.016;2023-08-24T14:31:44;3.83;;;1.60;;
29712;SDS011;16623;53.632;10.016;2023-08-24T14:34:09;2.90;;;1.58;;
29712;SDS011;16623;53.632;10.016;2023-08-24T14:36:35;2.97;;;1.70;;
29712;SDS011;16623;53.632;10.016;2023-08-24T14:39:01;3.30;;;1.58;;